sensor_id;sensor_type;location;lat;lon;timestamp;P1;P2;P0
63662;PMS5003;49815;51.618;0.336;2022-07-06T00:00:20;5;5;
63662;PMS5003;49815;51.618;0.336;2022-07-06T00:02:45;3;3;
63662;PMS5003;49815;51.618;0.336;2022-07-06T00:05:11;6;6;
63662;PMS5003;49815;51.618;0.336;2022-07-06T00:07:36;5;5;
63662;PMS5003;49815;51.618;0.336;2022-07-06T00:10:02;7;5;
63662;PMS5003;49815;51.618;0.336;2022-07-06T00:12:27;5;5;
63662;PMS5003;49815;51.618;0.336;2022-07-06T00:14:52;6;5;
63662;PMS5003;49815;51.618;0.336;2022-07-06T00:17:18;6;4;
63662;PMS5003;49815;51.618;0.336;2022-07-06T00:19:43;5;5;
63662;PMS5003;49815;51.618;0.336;2022-07-06T00:22:08;5;5;
63662;PMS5003;49815;51.618;0.336;2022-07-06T00:24:34;6;6;
63662;PMS5003;49815;51.618;0.336;2022-07-06T00:26:59;7;5;
63662;PMS5003;49815;51.618;0.336;2022-07-06T00:29:24;5;5;
63662;PMS5003;49815;51.618;0.336;2022-07-06T00:31:50;4;4;
63662;PMS5003;49815;51.618;0.336;2022-07-06T00:34:15;3;3;
63662;PMS5003;49815;51.618;0.336;2022-07-06T00:36:40;5;5;
63662;PMS5003;49815;51.618;0.336;2022-07-06T00:39:06;5;5;
63662;PMS5003;49815;51.618;0.336;2022-07-06T00:41:31;7;5;
63662;PMS5003;49815;51.618;0.336;2022-07-06T00:43:57;4;4;
63662;PMS5003;49815;51.618;0.336;2022-07-06T00:46:23;5;5;
63662;PMS5003;49815;51.618;0.336;2022-07-06T00:48:48;3;3;
63662;PMS5003;49815;51.618;0.336;2022-07-06T00:51:13;5;5;
63662;PMS5003;49815;51.618;0.336;2022-07-06T00:53:38;4;4;
63662;PMS5003;49815;51.618;0.336;2022-07-06T00:56:04;6;6;
63662;PMS5003;49815;51.618;0.336;2022-07-06T00:58:29;3;3;
63662;PMS5003;49815;51.618;0.336;2022-07-06T01:00:54;7;6;
63662;PMS5003;49815;51.618;0.336;2022-07-06T01:03:20;5;5;
63662;PMS5003;49815;51.618;0.336;2022-07-06T01:05:45;5;5;
63662;PMS5003;49815;51.618;0.336;2022-07-06T01:08:11;8;8;
63662;PMS5003;49815;51.618;0.336;2022-07-06T01:10:36;6;6;
63662;PMS5003;49815;51.618;0.336;2022-07-06T01:13:03;6;4;
63662;PMS5003;49815;51.618;0.336;2022-07-06T01:15:27;5;4;
63662;PMS5003;49815;51.618;0.336;2022-07-06T01:17:52;5;5;
63662;PMS5003;49815;51.618;0.336;2022-07-06T01:20:19;5;5;
63662;PMS5003;49815;51.618;0.336;2022-07-06T01:22:43;6;4;
63662;PMS5003;49815;51.618;0.336;2022-07-06T01:25:09;5;5;
63662;PMS5003;49815;51.618;0.336;2022-07-06T01:27:34;4;4;
63662;PMS5003;49815;51.618;0.336;2022-07-06T01:29:59;4;4;
63662;PMS5003;49815;51.618;0.336;2022-07-06T01:32:25;6;5;
63662;PMS5003;49815;51.618;0.336;2022-07-06T01:34:51;6;5;
63662;PMS5003;49815;51.618;0.336;2022-07-06T01:37:16;5;4;
63662;PMS5003;49815;51.618;0.336;2022-07-06T01:39:41;4;3;
63662;PMS5003;49815;51.618;0.336;2022-07-06T01:42:06;4;4;
63662;PMS5003;49815;51.618;0.336;2022-07-06T01:44:32;5;5;
63662;PMS5003;49815;51.618;0.336;2022-07-06T01:46:57;5;4;
63662;PMS5003;49815;51.618;0.336;2022-07-06T01:49:23;4;3;
63662;PMS5003;49815;51.618;0.336;2022-07-06T01:51:48;4;4;
63662;PMS5003;49815;51.618;0.336;2022-07-06T01:54:15;3;3;
63662;PMS5003;49815;51.618;0.336;2022-07-06T01:56:40;7;5;
63662;PMS5003;49815;51.618;0.336;2022-07-06T01:59:04;4;4;
63662;PMS5003;49815;51.618;0.336;2022-07-06T02:01:30;5;3;
63662;PMS5003;49815;51.618;0.336;2022-07-06T02:03:55;4;4;
63662;PMS5003;49815;51.618;0.336;2022-07-06T02:06:20;6;3;
63662;PMS5003;49815;51.618;0.336;2022-07-06T02:08:46;8;5;
63662;PMS5003;49815;51.618;0.336;2022-07-06T02:11:11;5;4;
63662;PMS5003;49815;51.618;0.336;2022-07-06T02:13:37;4;4;
63662;PMS5003;49815;51.618;0.336;2022-07-06T02:16:03;5;5;
63662;PMS5003;49815;51.618;0.336;2022-07-06T02:18:28;3;3;
63662;PMS5003;49815;51.618;0.336;2022-07-06T02:20:53;4;4;
63662;PMS5003;49815;51.618;0.336;2022-07-06T02:23:19;4;4;
63662;PMS5003;49815;51.618;0.336;2022-07-06T02:25:44;5;4;
63662;PMS5003;49815;51.618;0.336;2022-07-06T02:28:09;5;5;
63662;PMS5003;49815;51.618;0.336;2022-07-06T02:30:35;4;4;
63662;PMS5003;49815;51.618;0.336;2022-07-06T02:33:01;3;3;
63662;PMS5003;49815;51.618;0.336;2022-07-06T02:35:26;5;4;
63662;PMS5003;49815;51.618;0.336;2022-07-06T02:37:51;6;3;
63662;PMS5003;49815;51.618;0.336;2022-07-06T02:40:16;5;5;
63662;PMS5003;49815;51.618;0.336;2022-07-06T02:42:41;9;5;
63662;PMS5003;49815;51.618;0.336;2022-07-06T02:45:08;6;5;
63662;PMS5003;49815;51.618;0.336;2022-07-06T02:47:32;5;3;
63662;PMS5003;49815;51.618;0.336;2022-07-06T02:49:58;3;3;
63662;PMS5003;49815;51.618;0.336;2022-07-06T02:52:23;5;3;
63662;PMS5003;49815;51.618;0.336;2022-07-06T02:54:48;4;4;
63662;PMS5003;49815;51.618;0.336;2022-07-06T02:57:14;6;5;
63662;PMS5003;49815;51.618;0.336;2022-07-06T02:59:39;6;5;
63662;PMS5003;49815;51.618;0.336;2022-07-06T03:02:04;5;5;
63662;PMS5003;49815;51.618;0.336;2022-07-06T03:04:30;8;5;
63662;PMS5003;49815;51.618;0.336;2022-07-06T03:06:55;4;4;
63662;PMS5003;49815;51.618;0.336;2022-07-06T03:09:21;5;4;
63662;PMS5003;49815;51.618;0.336;2022-07-06T03:11:46;4;4;
63662;PMS5003;49815;51.618;0.336;2022-07-06T03:14:11;6;4;
63662;PMS5003;49815;51.618;0.336;2022-07-06T03:16:37;4;4;
63662;PMS5003;49815;51.618;0.336;2022-07-06T03:19:03;4;4;
63662;PMS5003;49815;51.618;0.336;2022-07-06T03:21:28;5;5;
63662;PMS5003;49815;51.618;0.336;2022-07-06T03:23:53;5;5;
63662;PMS5003;49815;51.618;0.336;2022-07-06T03:26:19;5;3;
63662;PMS5003;49815;51.618;0.336;2022-07-06T03:28:44;4;4;
63662;PMS5003;49815;51.618;0.336;2022-07-06T03:31:09;5;5;
63662;PMS5003;49815;51.618;0.336;2022-07-06T03:33:35;5;3;
63662;PMS5003;49815;51.618;0.336;2022-07-06T03:36:00;6;5;
63662;PMS5003;49815;51.618;0.336;2022-07-06T03:38:26;4;4;
63662;PMS5003;49815;51.618;0.336;2022-07-06T03:40:51;5;5;
63662;PMS5003;49815;51.618;0.336;2022-07-06T03:43:17;8;6;
63662;PMS5003;49815;51.618;0.336;2022-07-06T03:45:42;5;5;
63662;PMS5003;49815;51.618;0.336;2022-07-06T03:48:07;8;7;
63662;PMS5003;49815;51.618;0.336;2022-07-06T03:50:34;10;4;
63662;PMS5003;49815;51.618;0.336;2022-07-06T03:52:58;5;4;
63662;PMS5003;49815;51.618;0.336;2022-07-06T03:55:23;5;5;
63662;PMS5003;49815;51.618;0.336;2022-07-06T03:57:49;6;3;
63662;PMS5003;49815;51.618;0.336;2022-07-06T04:00:15;5;5;
63662;PMS5003;49815;51.618;0.336;2022-07-06T04:02:40;4;4;
63662;PMS5003;49815;51.618;0.336;2022-07-06T04:05:05;5;5;
63662;PMS5003;49815;51.618;0.336;2022-07-06T04:07:30;4;4;
63662;PMS5003;49815;51.618;0.336;2022-07-06T04:09:56;4;4;
63662;PMS5003;49815;51.618;0.336;2022-07-06T04:12:22;4;4;
63662;PMS5003;49815;51.618;0.336;2022-07-06T04:14:47;5;4;
63662;PMS5003;49815;51.618;0.336;2022-07-06T04:17:13;6;6;
63662;PMS5003;49815;51.618;0.336;2022-07-06T04:19:38;5;4;
63662;PMS5003;49815;51.618;0.336;2022-07-06T04:22:04;5;5;
63662;PMS5003;49815;51.618;0.336;2022-07-06T04:24:29;4;4;
63662;PMS5003;49815;51.618;0.336;2022-07-06T04:26:54;5;5;
63662;PMS5003;49815;51.618;0.336;2022-07-06T04:29:19;6;5;
63662;PMS5003;49815;51.618;0.336;2022-07-06T04:31:45;6;4;
63662;PMS5003;49815;51.618;0.336;2022-07-06T04:34:10;7;5;
63662;PMS5003;49815;51.618;0.336;2022-07-06T04:36:35;7;6;
63662;PMS5003;49815;51.618;0.336;2022-07-06T04:39:01;4;4;
63662;PMS5003;49815;51.618;0.336;2022-07-06T04:41:27;4;4;
63662;PMS5003;49815;51.618;0.336;2022-07-06T04:43:51;6;3;
63662;PMS5003;49815;51.618;0.336;2022-07-06T04:46:17;12;7;
63662;PMS5003;49815;51.618;0.336;2022-07-06T04:48:43;3;3;
63662;PMS5003;49815;51.618;0.336;2022-07-06T04:51:08;5;3;
63662;PMS5003;49815;51.618;0.336;2022-07-06T04:53:34;3;3;
63662;PMS5003;49815;51.618;0.336;2022-07-06T04:55:59;4;4;
63662;PMS5003;49815;51.618;0.336;2022-07-06T04:58:24;6;4;
63662;PMS5003;49815;51.618;0.336;2022-07-06T05:00:50;3;3;
63662;PMS5003;49815;51.618;0.336;2022-07-06T05:03:14;3;3;
63662;PMS5003;49815;51.618;0.336;2022-07-06T05:05:40;2;2;
63662;PMS5003;49815;51.618;0.336;2022-07-06T05:08:05;4;3;
63662;PMS5003;49815;51.618;0.336;2022-07-06T05:10:31;4;3;
63662;PMS5003;49815;51.618;0.336;2022-07-06T05:12:56;4;4;
63662;PMS5003;49815;51.618;0.336;2022-07-06T05:15:21;5;5;
63662;PMS5003;49815;51.618;0.336;2022-07-06T05:17:47;4;3;
63662;PMS5003;49815;51.618;0.336;2022-07-06T05:20:12;4;4;
63662;PMS5003;49815;51.618;0.336;2022-07-06T05:22:37;11;9;
63662;PMS5003;49815;51.618;0.336;2022-07-06T05:27:27;4;4;
63662;PMS5003;49815;51.618;0.336;2022-07-06T05:29:52;11;11;
63662;PMS5003;49815;51.618;0.336;2022-07-06T05:32:18;6;4;
63662;PMS5003;49815;51.618;0.336;2022-07-06T05:34:43;5;4;
63662;PMS5003;49815;51.618;0.336;2022-07-06T05:37:08;4;4;
63662;PMS5003;49815;51.618;0.336;2022-07-06T05:39:34;3;3;
63662;PMS5003;49815;51.618;0.336;2022-07-06T05:41:59;6;4;
63662;PMS5003;49815;51.618;0.336;2022-07-06T05:44:25;4;4;
63662;PMS5003;49815;51.618;0.336;2022-07-06T05:46:50;4;3;
63662;PMS5003;49815;51.618;0.336;2022-07-06T05:49:15;5;4;
63662;PMS5003;49815;51.618;0.336;2022-07-06T05:51:40;4;3;
63662;PMS5003;49815;51.618;0.336;2022-07-06T05:54:06;3;3;
63662;PMS5003;49815;51.618;0.336;2022-07-06T05:56:31;5;4;
63662;PMS5003;49815;51.618;0.336;2022-07-06T05:58:56;5;5;
63662;PMS5003;49815;51.618;0.336;2022-07-06T06:01:21;6;5;
63662;PMS5003;49815;51.618;0.336;2022-07-06T06:03:47;3;3;
63662;PMS5003;49815;51.618;0.336;2022-07-06T06:06:12;3;3;
63662;PMS5003;49815;51.618;0.336;2022-07-06T06:08:37;4;4;
63662;PMS5003;49815;51.618;0.336;2022-07-06T06:11:03;4;3;
63662;PMS5003;49815;51.618;0.336;2022-07-06T06:13:28;5;3;
63662;PMS5003;49815;51.618;0.336;2022-07-06T06:15:53;4;4;
63662;PMS5003;49815;51.618;0.336;2022-07-06T06:18:19;7;4;
63662;PMS5003;49815;51.618;0.336;2022-07-06T06:20:44;7;7;
63662;PMS5003;49815;51.618;0.336;2022-07-06T06:23:09;4;4;
63662;PMS5003;49815;51.618;0.336;2022-07-06T06:25:35;4;4;
63662;PMS5003;49815;51.618;0.336;2022-07-06T06:28:00;6;4;
63662;PMS5003;49815;51.618;0.336;2022-07-06T06:30:25;3;3;
63662;PMS5003;49815;51.618;0.336;2022-07-06T06:32:50;4;4;
63662;PMS5003;49815;51.618;0.336;2022-07-06T06:35:15;6;4;
63662;PMS5003;49815;51.618;0.336;2022-07-06T06:37:40;10;10;
63662;PMS5003;49815;51.618;0.336;2022-07-06T06:40:06;11;10;
63662;PMS5003;49815;51.618;0.336;2022-07-06T06:42:31;14;14;
63662;PMS5003;49815;51.618;0.336;2022-07-06T06:44:56;16;15;
63662;PMS5003;49815;51.618;0.336;2022-07-06T06:47:22;21;20;
63662;PMS5003;49815;51.618;0.336;2022-07-06T06:49:48;31;27;
63662;PMS5003;49815;51.618;0.336;2022-07-06T06:52:13;30;29;
63662;PMS5003;49815;51.618;0.336;2022-07-06T06:54:38;28;26;
63662;PMS5003;49815;51.618;0.336;2022-07-06T06:57:04;23;21;
63662;PMS5003;49815;51.618;0.336;2022-07-06T06:59:29;20;18;
63662;PMS5003;49815;51.618;0.336;2022-07-06T07:01:54;20;19;
63662;PMS5003;49815;51.618;0.336;2022-07-06T07:04:20;22;22;
63662;PMS5003;49815;51.618;0.336;2022-07-06T07:06:46;19;17;
63662;PMS5003;49815;51.618;0.336;2022-07-06T07:09:11;22;20;
63662;PMS5003;49815;51.618;0.336;2022-07-06T07:11:36;24;24;
63662;PMS5003;49815;51.618;0.336;2022-07-06T07:14:02;25;25;
63662;PMS5003;49815;51.618;0.336;2022-07-06T07:16:27;28;28;
63662;PMS5003;49815;51.618;0.336;2022-07-06T07:18:53;26;23;
63662;PMS5003;49815;51.618;0.336;2022-07-06T07:21:19;34;32;
63662;PMS5003;49815;51.618;0.336;2022-07-06T07:23:45;34;32;
63662;PMS5003;49815;51.618;0.336;2022-07-06T07:26:10;32;30;
63662;PMS5003;49815;51.618;0.336;2022-07-06T07:28:36;23;22;
63662;PMS5003;49815;51.618;0.336;2022-07-06T07:31:02;21;19;
63662;PMS5003;49815;51.618;0.336;2022-07-06T07:33:27;21;21;
63662;PMS5003;49815;51.618;0.336;2022-07-06T07:35:52;18;15;
63662;PMS5003;49815;51.618;0.336;2022-07-06T07:38:18;20;20;
63662;PMS5003;49815;51.618;0.336;2022-07-06T07:40:44;21;20;
63662;PMS5003;49815;51.618;0.336;2022-07-06T07:43:10;21;21;
63662;PMS5003;49815;51.618;0.336;2022-07-06T07:45:36;24;23;
63662;PMS5003;49815;51.618;0.336;2022-07-06T07:48:02;16;16;
63662;PMS5003;49815;51.618;0.336;2022-07-06T07:50:27;19;17;
63662;PMS5003;49815;51.618;0.336;2022-07-06T07:52:53;14;12;
63662;PMS5003;49815;51.618;0.336;2022-07-06T07:55:19;12;9;
63662;PMS5003;49815;51.618;0.336;2022-07-06T07:57:43;10;10;
63662;PMS5003;49815;51.618;0.336;2022-07-06T08:00:09;17;13;
63662;PMS5003;49815;51.618;0.336;2022-07-06T08:02:34;12;10;
63662;PMS5003;49815;51.618;0.336;2022-07-06T08:05:00;12;11;
63662;PMS5003;49815;51.618;0.336;2022-07-06T08:07:25;11;11;
63662;PMS5003;49815;51.618;0.336;2022-07-06T08:09:50;7;7;
63662;PMS5003;49815;51.618;0.336;2022-07-06T08:12:15;9;9;
63662;PMS5003;49815;51.618;0.336;2022-07-06T08:14:40;6;6;
63662;PMS5003;49815;51.618;0.336;2022-07-06T08:17:06;11;9;
63662;PMS5003;49815;51.618;0.336;2022-07-06T08:19:32;7;7;
63662;PMS5003;49815;51.618;0.336;2022-07-06T08:21:57;13;11;
63662;PMS5003;49815;51.618;0.336;2022-07-06T08:24:22;7;7;
63662;PMS5003;49815;51.618;0.336;2022-07-06T08:26:47;6;6;
63662;PMS5003;49815;51.618;0.336;2022-07-06T08:29:12;5;5;
63662;PMS5003;49815;51.618;0.336;2022-07-06T08:31:38;7;6;
63662;PMS5003;49815;51.618;0.336;2022-07-06T08:34:03;11;10;
63662;PMS5003;49815;51.618;0.336;2022-07-06T08:36:28;10;8;
63662;PMS5003;49815;51.618;0.336;2022-07-06T08:38:54;8;8;
63662;PMS5003;49815;51.618;0.336;2022-07-06T08:41:21;7;7;
63662;PMS5003;49815;51.618;0.336;2022-07-06T08:43:44;7;7;
63662;PMS5003;49815;51.618;0.336;2022-07-06T08:46:09;5;5;
63662;PMS5003;49815;51.618;0.336;2022-07-06T08:48:35;7;7;
63662;PMS5003;49815;51.618;0.336;2022-07-06T08:50:59;9;6;
63662;PMS5003;49815;51.618;0.336;2022-07-06T08:53:25;7;7;
63662;PMS5003;49815;51.618;0.336;2022-07-06T08:55:51;5;5;
63662;PMS5003;49815;51.618;0.336;2022-07-06T08:58:17;7;5;
63662;PMS5003;49815;51.618;0.336;2022-07-06T09:00:40;6;6;
63662;PMS5003;49815;51.618;0.336;2022-07-06T09:03:06;5;5;
63662;PMS5003;49815;51.618;0.336;2022-07-06T09:05:31;5;3;
63662;PMS5003;49815;51.618;0.336;2022-07-06T09:07:56;4;4;
63662;PMS5003;49815;51.618;0.336;2022-07-06T09:10:21;5;5;
63662;PMS5003;49815;51.618;0.336;2022-07-06T09:12:46;5;5;
63662;PMS5003;49815;51.618;0.336;2022-07-06T09:15:11;3;3;
63662;PMS5003;49815;51.618;0.336;2022-07-06T09:17:37;6;5;
63662;PMS5003;49815;51.618;0.336;2022-07-06T09:20:02;3;3;
63662;PMS5003;49815;51.618;0.336;2022-07-06T09:22:28;4;3;
63662;PMS5003;49815;51.618;0.336;2022-07-06T09:24:52;4;4;
63662;PMS5003;49815;51.618;0.336;2022-07-06T09:27:17;2;2;
63662;PMS5003;49815;51.618;0.336;2022-07-06T09:29:43;3;3;
63662;PMS5003;49815;51.618;0.336;2022-07-06T09:32:08;4;4;
63662;PMS5003;49815;51.618;0.336;2022-07-06T09:36:58;3;3;
63662;PMS5003;49815;51.618;0.336;2022-07-06T09:39:24;4;4;
63662;PMS5003;49815;51.618;0.336;2022-07-06T09:41:50;3;3;
63662;PMS5003;49815;51.618;0.336;2022-07-06T09:44:18;3;3;
63662;PMS5003;49815;51.618;0.336;2022-07-06T09:46:40;3;3;
63662;PMS5003;49815;51.618;0.336;2022-07-06T09:49:06;2;2;
63662;PMS5003;49815;51.618;0.336;2022-07-06T09:51:29;3;2;
63662;PMS5003;49815;51.618;0.336;2022-07-06T09:53:55;3;3;
63662;PMS5003;49815;51.618;0.336;2022-07-06T09:56:20;3;3;
63662;PMS5003;49815;51.618;0.336;2022-07-06T09:58:45;2;2;
63662;PMS5003;49815;51.618;0.336;2022-07-06T10:01:10;2;2;
63662;PMS5003;49815;51.618;0.336;2022-07-06T10:03:35;0;0;
63662;PMS5003;49815;51.618;0.336;2022-07-06T10:06:00;3;2;
63662;PMS5003;49815;51.618;0.336;2022-07-06T10:08:26;8;8;
63662;PMS5003;49815;51.618;0.336;2022-07-06T10:10:51;3;3;
63662;PMS5003;49815;51.618;0.336;2022-07-06T10:13:18;3;3;
63662;PMS5003;49815;51.618;0.336;2022-07-06T10:15:41;3;3;
63662;PMS5003;49815;51.618;0.336;2022-07-06T10:18:07;4;3;
63662;PMS5003;49815;51.618;0.336;2022-07-06T10:20:33;8;4;
63662;PMS5003;49815;51.618;0.336;2022-07-06T10:22:57;2;2;
63662;PMS5003;49815;51.618;0.336;2022-07-06T10:25:22;3;3;
63662;PMS5003;49815;51.618;0.336;2022-07-06T10:27:48;3;3;
63662;PMS5003;49815;51.618;0.336;2022-07-06T10:30:12;3;3;
63662;PMS5003;49815;51.618;0.336;2022-07-06T10:32:38;3;3;
63662;PMS5003;49815;51.618;0.336;2022-07-06T10:35:03;1;1;
63662;PMS5003;49815;51.618;0.336;2022-07-06T10:37:28;1;1;
63662;PMS5003;49815;51.618;0.336;2022-07-06T10:39:53;2;2;
63662;PMS5003;49815;51.618;0.336;2022-07-06T10:44:44;2;2;
63662;PMS5003;49815;51.618;0.336;2022-07-06T10:47:08;1;1;
63662;PMS5003;49815;51.618;0.336;2022-07-06T10:49:33;3;2;
63662;PMS5003;49815;51.618;0.336;2022-07-06T10:51:58;2;2;
63662;PMS5003;49815;51.618;0.336;2022-07-06T10:54:23;2;2;
63662;PMS5003;49815;51.618;0.336;2022-07-06T10:56:49;1;1;
63662;PMS5003;49815;51.618;0.336;2022-07-06T10:59:14;3;3;
63662;PMS5003;49815;51.618;0.336;2022-07-06T11:01:39;1;1;
63662;PMS5003;49815;51.618;0.336;2022-07-06T11:04:05;2;2;
63662;PMS5003;49815;51.618;0.336;2022-07-06T11:06:31;2;2;
63662;PMS5003;49815;51.618;0.336;2022-07-06T11:09:00;2;2;
63662;PMS5003;49815;51.618;0.336;2022-07-06T11:11:21;2;2;
63662;PMS5003;49815;51.618;0.336;2022-07-06T11:13:51;1;1;
63662;PMS5003;49815;51.618;0.336;2022-07-06T11:16:09;3;3;
63662;PMS5003;49815;51.618;0.336;2022-07-06T11:18:38;3;3;
63662;PMS5003;49815;51.618;0.336;2022-07-06T11:23:25;0;0;
63662;PMS5003;49815;51.618;0.336;2022-07-06T11:25:50;20;19;
63662;PMS5003;49815;51.618;0.336;2022-07-06T11:28:15;21;21;
63662;PMS5003;49815;51.618;0.336;2022-07-06T11:30:40;13;13;
63662;PMS5003;49815;51.618;0.336;2022-07-06T11:33:06;1;1;
63662;PMS5003;49815;51.618;0.336;2022-07-06T11:35:30;1;1;
63662;PMS5003;49815;51.618;0.336;2022-07-06T11:37:55;10;8;
63662;PMS5003;49815;51.618;0.336;2022-07-06T11:40:21;2;2;
63662;PMS5003;49815;51.618;0.336;2022-07-06T11:45:10;1;1;
63662;PMS5003;49815;51.618;0.336;2022-07-06T11:47:36;2;2;
63662;PMS5003;49815;51.618;0.336;2022-07-06T11:50:01;1;0;
63662;PMS5003;49815;51.618;0.336;2022-07-06T11:52:26;1;1;
63662;PMS5003;49815;51.618;0.336;2022-07-06T11:54:56;4;1;
63662;PMS5003;49815;51.618;0.336;2022-07-06T11:57:16;1;1;
63662;PMS5003;49815;51.618;0.336;2022-07-06T11:59:41;2;2;
63662;PMS5003;49815;51.618;0.336;2022-07-06T12:02:06;1;1;
63662;PMS5003;49815;51.618;0.336;2022-07-06T12:04:31;1;1;
63662;PMS5003;49815;51.618;0.336;2022-07-06T12:06:59;0;0;
63662;PMS5003;49815;51.618;0.336;2022-07-06T12:09:21;1;1;
63662;PMS5003;49815;51.618;0.336;2022-07-06T12:11:46;4;1;
63662;PMS5003;49815;51.618;0.336;2022-07-06T12:14:13;1;1;
63662;PMS5003;49815;51.618;0.336;2022-07-06T12:16:36;1;1;
63662;PMS5003;49815;51.618;0.336;2022-07-06T12:19:02;1;1;
63662;PMS5003;49815;51.618;0.336;2022-07-06T12:21:26;2;1;
63662;PMS5003;49815;51.618;0.336;2022-07-06T12:23:52;0;0;
63662;PMS5003;49815;51.618;0.336;2022-07-06T12:26:17;0;0;
63662;PMS5003;49815;51.618;0.336;2022-07-06T12:28:41;0;0;
63662;PMS5003;49815;51.618;0.336;2022-07-06T12:31:07;0;0;
63662;PMS5003;49815;51.618;0.336;2022-07-06T12:33:31;0;0;
63662;PMS5003;49815;51.618;0.336;2022-07-06T12:35:57;1;1;
63662;PMS5003;49815;51.618;0.336;2022-07-06T12:38:22;1;1;
63662;PMS5003;49815;51.618;0.336;2022-07-06T12:40:46;2;1;
63662;PMS5003;49815;51.618;0.336;2022-07-06T12:43:11;1;1;
63662;PMS5003;49815;51.618;0.336;2022-07-06T12:45:36;1;1;
63662;PMS5003;49815;51.618;0.336;2022-07-06T12:48:03;1;1;
63662;PMS5003;49815;51.618;0.336;2022-07-06T12:50:30;1;1;
63662;PMS5003;49815;51.618;0.336;2022-07-06T12:52:52;1;1;
63662;PMS5003;49815;51.618;0.336;2022-07-06T12:55:17;1;1;
63662;PMS5003;49815;51.618;0.336;2022-07-06T12:57:42;1;1;
63662;PMS5003;49815;51.618;0.336;2022-07-06T13:00:07;2;2;
63662;PMS5003;49815;51.618;0.336;2022-07-06T13:02:32;0;0;
63662;PMS5003;49815;51.618;0.336;2022-07-06T13:04:58;1;1;
63662;PMS5003;49815;51.618;0.336;2022-07-06T13:07:22;1;1;
63662;PMS5003;49815;51.618;0.336;2022-07-06T13:09:48;1;1;
63662;PMS5003;49815;51.618;0.336;2022-07-06T13:12:12;2;2;
63662;PMS5003;49815;51.618;0.336;2022-07-06T13:14:38;2;2;
63662;PMS5003;49815;51.618;0.336;2022-07-06T13:17:03;2;2;
63662;PMS5003;49815;51.618;0.336;2022-07-06T13:19:28;2;2;
63662;PMS5003;49815;51.618;0.336;2022-07-06T13:21:53;1;1;
63662;PMS5003;49815;51.618;0.336;2022-07-06T13:24:18;1;1;
63662;PMS5003;49815;51.618;0.336;2022-07-06T13:26:43;1;1;
63662;PMS5003;49815;51.618;0.336;2022-07-06T13:29:08;2;2;
63662;PMS5003;49815;51.618;0.336;2022-07-06T13:31:33;1;1;
63662;PMS5003;49815;51.618;0.336;2022-07-06T13:33:58;1;1;
63662;PMS5003;49815;51.618;0.336;2022-07-06T13:36:23;1;1;
63662;PMS5003;49815;51.618;0.336;2022-07-06T13:38:48;2;2;
63662;PMS5003;49815;51.618;0.336;2022-07-06T13:41:13;2;2;
63662;PMS5003;49815;51.618;0.336;2022-07-06T13:43:39;3;1;
63662;PMS5003;49815;51.618;0.336;2022-07-06T13:46:04;1;1;
63662;PMS5003;49815;51.618;0.336;2022-07-06T13:48:29;1;1;
63662;PMS5003;49815;51.618;0.336;2022-07-06T13:50:54;1;1;
63662;PMS5003;49815;51.618;0.336;2022-07-06T13:53:19;1;1;
63662;PMS5003;49815;51.618;0.336;2022-07-06T13:55:45;1;1;
63662;PMS5003;49815;51.618;0.336;2022-07-06T13:58:09;2;2;
63662;PMS5003;49815;51.618;0.336;2022-07-06T14:00:34;2;2;
63662;PMS5003;49815;51.618;0.336;2022-07-06T14:02:59;1;1;
63662;PMS5003;49815;51.618;0.336;2022-07-06T14:05:24;2;2;
63662;PMS5003;49815;51.618;0.336;2022-07-06T14:07:50;1;1;
63662;PMS5003;49815;51.618;0.336;2022-07-06T14:10:14;1;1;
63662;PMS5003;49815;51.618;0.336;2022-07-06T14:12:39;1;1;
63662;PMS5003;49815;51.618;0.336;2022-07-06T14:15:05;1;1;
63662;PMS5003;49815;51.618;0.336;2022-07-06T14:17:29;2;2;
63662;PMS5003;49815;51.618;0.336;2022-07-06T14:19:55;1;0;
63662;PMS5003;49815;51.618;0.336;2022-07-06T14:22:20;2;1;
63662;PMS5003;49815;51.618;0.336;2022-07-06T14:24:45;1;1;
63662;PMS5003;49815;51.618;0.336;2022-07-06T14:27:10;2;2;
63662;PMS5003;49815;51.618;0.336;2022-07-06T14:29:35;2;2;
63662;PMS5003;49815;51.618;0.336;2022-07-06T14:32:00;1;1;
63662;PMS5003;49815;51.618;0.336;2022-07-06T14:34:25;1;1;
63662;PMS5003;49815;51.618;0.336;2022-07-06T14:36:50;2;2;
63662;PMS5003;49815;51.618;0.336;2022-07-06T14:39:15;2;1;
63662;PMS5003;49815;51.618;0.336;2022-07-06T14:41:40;2;2;
63662;PMS5003;49815;51.618;0.336;2022-07-06T14:44:05;1;1;
63662;PMS5003;49815;51.618;0.336;2022-07-06T14:46:30;5;2;
63662;PMS5003;49815;51.618;0.336;2022-07-06T14:48:55;2;2;
63662;PMS5003;49815;51.618;0.336;2022-07-06T14:51:21;0;0;
63662;PMS5003;49815;51.618;0.336;2022-07-06T14:53:46;1;1;
63662;PMS5003;49815;51.618;0.336;2022-07-06T14:56:11;1;1;
63662;PMS5003;49815;51.618;0.336;2022-07-06T14:58:36;1;1;
63662;PMS5003;49815;51.618;0.336;2022-07-06T15:01:01;1;1;
63662;PMS5003;49815;51.618;0.336;2022-07-06T15:03:26;1;1;
63662;PMS5003;49815;51.618;0.336;2022-07-06T15:05:51;1;0;
63662;PMS5003;49815;51.618;0.336;2022-07-06T15:08:16;2;2;
63662;PMS5003;49815;51.618;0.336;2022-07-06T15:10:41;1;1;
63662;PMS5003;49815;51.618;0.336;2022-07-06T15:13:06;1;1;
63662;PMS5003;49815;51.618;0.336;2022-07-06T15:15:32;2;2;
63662;PMS5003;49815;51.618;0.336;2022-07-06T15:20:22;1;1;
63662;PMS5003;49815;51.618;0.336;2022-07-06T15:22:46;1;1;
63662;PMS5003;49815;51.618;0.336;2022-07-06T15:25:12;0;0;
63662;PMS5003;49815;51.618;0.336;2022-07-06T15:27:37;2;2;
63662;PMS5003;49815;51.618;0.336;2022-07-06T15:30:02;1;1;
63662;PMS5003;49815;51.618;0.336;2022-07-06T15:32:27;2;2;
63662;PMS5003;49815;51.618;0.336;2022-07-06T15:34:52;3;2;
63662;PMS5003;49815;51.618;0.336;2022-07-06T15:37:17;1;1;
63662;PMS5003;49815;51.618;0.336;2022-07-06T15:39:42;1;1;
63662;PMS5003;49815;51.618;0.336;2022-07-06T15:42:07;3;3;
63662;PMS5003;49815;51.618;0.336;2022-07-06T15:44:32;0;0;
63662;PMS5003;49815;51.618;0.336;2022-07-06T15:47:00;1;1;
63662;PMS5003;49815;51.618;0.336;2022-07-06T15:49:22;2;2;
63662;PMS5003;49815;51.618;0.336;2022-07-06T15:51:47;2;2;
63662;PMS5003;49815;51.618;0.336;2022-07-06T15:54:13;3;3;
63662;PMS5003;49815;51.618;0.336;2022-07-06T15:56:38;2;2;
63662;PMS5003;49815;51.618;0.336;2022-07-06T15:59:03;0;0;
63662;PMS5003;49815;51.618;0.336;2022-07-06T16:01:28;2;2;
63662;PMS5003;49815;51.618;0.336;2022-07-06T16:03:53;2;2;
63662;PMS5003;49815;51.618;0.336;2022-07-06T16:06:18;2;2;
63662;PMS5003;49815;51.618;0.336;2022-07-06T16:08:43;1;1;
63662;PMS5003;49815;51.618;0.336;2022-07-06T16:11:08;1;1;
63662;PMS5003;49815;51.618;0.336;2022-07-06T16:13:33;2;2;
63662;PMS5003;49815;51.618;0.336;2022-07-06T16:15:58;3;1;
63662;PMS5003;49815;51.618;0.336;2022-07-06T16:18:23;1;1;
63662;PMS5003;49815;51.618;0.336;2022-07-06T16:20:49;1;1;
63662;PMS5003;49815;51.618;0.336;2022-07-06T16:23:14;1;1;
63662;PMS5003;49815;51.618;0.336;2022-07-06T16:25:39;2;2;
63662;PMS5003;49815;51.618;0.336;2022-07-06T16:28:04;1;1;
63662;PMS5003;49815;51.618;0.336;2022-07-06T16:30:29;2;2;
63662;PMS5003;49815;51.618;0.336;2022-07-06T16:32:54;1;1;
63662;PMS5003;49815;51.618;0.336;2022-07-06T16:35:20;1;1;
63662;PMS5003;49815;51.618;0.336;2022-07-06T16:37:44;1;1;
63662;PMS5003;49815;51.618;0.336;2022-07-06T16:40:10;1;1;
63662;PMS5003;49815;51.618;0.336;2022-07-06T16:42:34;0;0;
63662;PMS5003;49815;51.618;0.336;2022-07-06T16:44:59;1;1;
63662;PMS5003;49815;51.618;0.336;2022-07-06T16:47:24;1;1;